LXGB

Details ICAO LXGB (GIB)
Name Gibraltar
Region Gibralter
Timezone Europe/Gibraltar (UTC+1.0)
Plans Departing 1746
Arriving 2330
Stats Elevation 15 ft / 5 m (AMSL)
Location 36.151200° -5.349850°
Runways 1
Magnetic Variation 0.896° W
Sunrise 2019-12-12 07:24:05 UTC / 2019-12-12 08:24:05 Local
Sunset 2019-12-12 17:08:35 UTC / 2019-12-12 18:08:35 Local
Advertisement - Login to hide

Runways

ID Width Length Bearing (true/mag) Surface Threshold Overrun Markings Lighting
09 148 ft / 45 m 5,836 ft / 1,779 m 87.52° / 88.42° ASPHALT 476 ft / 145 m 0 ft / 0 m UK-PREC-APP EDGE THRESHOLD REIL-OMNI
27 148 ft / 45 m 5,836 ft / 1,779 m 267.53° / 268.43° ASPHALT 354 ft / 108 m 0 ft / 0 m UK-PREC-APP EDGE THRESHOLD REIL-OMNI

Map

Weather


0- 5 10 15 20 25 30 35+ Temperature / °C

Clouds and Precipitation
Forecast for 2019-12-12 18:00 UTC. Updated 4 hours ago

Ground ~20,000 ft ~40,000 ft Winds

METAR

LXGB 121850Z 26016KT 9999 FEW030 BKN050 16/10 Q1025 NOSIG

TAF

Not found

Frequencies

Approach 122.80 MHz Gibraltar Approach
Tower 131.20 MHz Gibraltar Tower
Tower 240.57 MHz Gibraltar Tower
Approach 264.87 MHz Gibraltar Approach
Approach 130.40 MHz Gibraltar Radar
Approach 235.05 MHz Gibraltar Radar
Warning: Do not use this data for real-world aviation or navigation. No guarantee of current accuracy is given.